sensor_id;sensor_type;location;lat;lon;timestamp;pressure;altitude;pressure_sealevel;temperature;humidity
11223;BME280;5668;52.012;8.724;2023-12-22T00:00:48;98183.81;;;7.19;82.17
11223;BME280;5668;52.012;8.724;2023-12-22T00:03:15;98187.34;;;7.18;82.08
11223;BME280;5668;52.012;8.724;2023-12-22T00:05:42;98180.56;;;7.17;81.77
11223;BME280;5668;52.012;8.724;2023-12-22T00:08:09;98178.91;;;7.16;81.74
11223;BME280;5668;52.012;8.724;2023-12-22T00:10:38;98177.03;;;7.18;81.63
11223;BME280;5668;52.012;8.724;2023-12-22T00:13:05;98171.84;;;7.18;80.87
11223;BME280;5668;52.012;8.724;2023-12-22T00:15:32;98176.75;;;7.21;82.27
11223;BME280;5668;52.012;8.724;2023-12-22T00:17:59;98181.22;;;7.19;82.44
11223;BME280;5668;52.012;8.724;2023-12-22T00:20:27;98186.09;;;7.22;82.91
11223;BME280;5668;52.012;8.724;2023-12-22T00:22:54;98169.28;;;7.18;83.36
11223;BME280;5668;52.012;8.724;2023-12-22T00:25:21;98166.69;;;7.18;82.94
11223;BME280;5668;52.012;8.724;2023-12-22T00:27:50;98175.94;;;7.21;84.43
11223;BME280;5668;52.012;8.724;2023-12-22T00:30:17;98178.34;;;7.22;85.28
11223;BME280;5668;52.012;8.724;2023-12-22T00:32:44;98192.91;;;7.23;86.19
11223;BME280;5668;52.012;8.724;2023-12-22T00:35:11;98189.09;;;7.27;85.91
11223;BME280;5668;52.012;8.724;2023-12-22T00:37:38;98191.69;;;7.27;86.09
11223;BME280;5668;52.012;8.724;2023-12-22T00:40:06;98251.09;;;7.27;86.76
11223;BME280;5668;52.012;8.724;2023-12-22T00:42:35;98248.53;;;6.98;88.10
11223;BME280;5668;52.012;8.724;2023-12-22T00:45:04;98249.31;;;6.70;87.72
11223;BME280;5668;52.012;8.724;2023-12-22T00:47:32;98245.63;;;6.53;88.36
11223;BME280;5668;52.012;8.724;2023-12-22T00:50:00;98266.56;;;6.20;89.80
11223;BME280;5668;52.012;8.724;2023-12-22T00:52:28;98218.47;;;6.00;93.11
11223;BME280;5668;52.012;8.724;2023-12-22T00:54:55;98246.69;;;6.01;92.98
11223;BME280;5668;52.012;8.724;2023-12-22T00:57:22;98260.13;;;6.05;92.28
11223;BME280;5668;52.012;8.724;2023-12-22T00:59:50;98250.50;;;6.07;92.76
11223;BME280;5668;52.012;8.724;2023-12-22T01:02:18;98255.38;;;6.10;92.78
11223;BME280;5668;52.012;8.724;2023-12-22T01:04:46;98245.38;;;6.16;92.46
11223;BME280;5668;52.012;8.724;2023-12-22T01:07:13;98238.88;;;6.22;92.61
11223;BME280;5668;52.012;8.724;2023-12-22T01:09:42;98240.81;;;6.30;93.08
11223;BME280;5668;52.012;8.724;2023-12-22T01:12:09;98237.81;;;6.34;93.16
11223;BME280;5668;52.012;8.724;2023-12-22T01:14:36;98231.31;;;6.40;92.67
11223;BME280;5668;52.012;8.724;2023-12-22T01:17:04;98231.88;;;6.43;92.68
11223;BME280;5668;52.012;8.724;2023-12-22T01:19:32;98232.28;;;6.48;92.89
11223;BME280;5668;52.012;8.724;2023-12-22T01:21:59;98230.16;;;6.53;92.24
11223;BME280;5668;52.012;8.724;2023-12-22T01:24:26;98230.69;;;6.57;91.77
11223;BME280;5668;52.012;8.724;2023-12-22T01:26:54;98237.47;;;6.58;92.72
11223;BME280;5668;52.012;8.724;2023-12-22T01:29:21;98266.94;;;6.55;92.36
11223;BME280;5668;52.012;8.724;2023-12-22T01:31:48;98277.53;;;6.52;93.19
11223;BME280;5668;52.012;8.724;2023-12-22T01:34:15;98279.56;;;6.09;93.35
11223;BME280;5668;52.012;8.724;2023-12-22T01:36:44;98297.97;;;6.04;94.05
11223;BME280;5668;52.012;8.724;2023-12-22T01:39:11;98280.16;;;5.92;94.70
11223;BME280;5668;52.012;8.724;2023-12-22T01:41:38;98297.97;;;5.83;95.04
11223;BME280;5668;52.012;8.724;2023-12-22T01:44:05;98318.28;;;5.77;94.99
11223;BME280;5668;52.012;8.724;2023-12-22T01:46:33;98299.06;;;5.60;96.22
11223;BME280;5668;52.012;8.724;2023-12-22T01:49:01;98286.88;;;5.62;96.69
11223;BME280;5668;52.012;8.724;2023-12-22T01:51:29;98276.19;;;5.67;97.06
11223;BME280;5668;52.012;8.724;2023-12-22T01:53:59;98264.69;;;5.71;97.34
11223;BME280;5668;52.012;8.724;2023-12-22T01:56:27;98283.56;;;5.81;97.10
11223;BME280;5668;52.012;8.724;2023-12-22T01:58:59;98282.97;;;5.89;96.90
11223;BME280;5668;52.012;8.724;2023-12-22T02:01:28;98284.38;;;5.93;96.56
11223;BME280;5668;52.012;8.724;2023-12-22T02:03:56;98290.06;;;5.96;96.43
11223;BME280;5668;52.012;8.724;2023-12-22T02:06:23;98304.47;;;5.99;96.58
11223;BME280;5668;52.012;8.724;2023-12-22T02:08:51;98321.56;;;6.00;96.88
11223;BME280;5668;52.012;8.724;2023-12-22T02:11:19;98307.75;;;6.01;96.22
11223;BME280;5668;52.012;8.724;2023-12-22T02:13:47;98304.19;;;6.02;96.31
11223;BME280;5668;52.012;8.724;2023-12-22T02:16:20;98287.78;;;6.03;95.43
11223;BME280;5668;52.012;8.724;2023-12-22T02:18:52;98283.44;;;6.03;95.48
11223;BME280;5668;52.012;8.724;2023-12-22T02:21:22;98279.13;;;6.04;94.57
11223;BME280;5668;52.012;8.724;2023-12-22T02:23:50;98272.50;;;6.11;94.87
11223;BME280;5668;52.012;8.724;2023-12-22T02:26:23;98275.06;;;6.11;94.63
11223;BME280;5668;52.012;8.724;2023-12-22T02:28:52;98278.09;;;6.16;94.26
11223;BME280;5668;52.012;8.724;2023-12-22T02:31:26;98296.56;;;6.21;93.42
11223;BME280;5668;52.012;8.724;2023-12-22T02:33:56;98278.50;;;6.21;93.30
11223;BME280;5668;52.012;8.724;2023-12-22T02:36:25;98300.78;;;6.22;93.48
11223;BME280;5668;52.012;8.724;2023-12-22T02:38:55;98312.84;;;6.21;92.53
11223;BME280;5668;52.012;8.724;2023-12-22T02:41:24;98314.63;;;6.21;93.09
11223;BME280;5668;52.012;8.724;2023-12-22T02:43:52;98327.50;;;6.21;93.82
11223;BME280;5668;52.012;8.724;2023-12-22T02:46:19;98326.56;;;6.22;93.80
11223;BME280;5668;52.012;8.724;2023-12-22T02:48:47;98341.22;;;6.21;94.49
11223;BME280;5668;52.012;8.724;2023-12-22T02:51:14;98329.91;;;6.13;95.43
11223;BME280;5668;52.012;8.724;2023-12-22T02:53:41;98326.75;;;6.09;96.64
11223;BME280;5668;52.012;8.724;2023-12-22T02:56:10;98329.50;;;6.08;96.76
11223;BME280;5668;52.012;8.724;2023-12-22T02:58:37;98325.16;;;6.08;96.81
11223;BME280;5668;52.012;8.724;2023-12-22T03:01:04;98307.94;;;6.09;97.57
11223;BME280;5668;52.012;8.724;2023-12-22T03:03:31;98301.78;;;6.10;97.25
11223;BME280;5668;52.012;8.724;2023-12-22T03:05:58;98287.72;;;6.14;97.40
11223;BME280;5668;52.012;8.724;2023-12-22T03:08:25;98305.06;;;6.12;97.14
11223;BME280;5668;52.012;8.724;2023-12-22T03:10:53;98302.63;;;6.10;96.25
11223;BME280;5668;52.012;8.724;2023-12-22T03:13:21;98300.97;;;6.09;96.16
11223;BME280;5668;52.012;8.724;2023-12-22T03:15:48;98305.66;;;6.15;95.09
11223;BME280;5668;52.012;8.724;2023-12-22T03:18:16;98316.50;;;6.19;95.26
11223;BME280;5668;52.012;8.724;2023-12-22T03:20:43;98303.59;;;6.19;95.03
11223;BME280;5668;52.012;8.724;2023-12-22T03:23:10;98297.50;;;6.20;94.20
11223;BME280;5668;52.012;8.724;2023-12-22T03:25:37;98287.88;;;6.22;94.06
11223;BME280;5668;52.012;8.724;2023-12-22T03:28:05;98281.78;;;6.23;93.58
11223;BME280;5668;52.012;8.724;2023-12-22T03:30:34;98286.94;;;6.23;92.79
11223;BME280;5668;52.012;8.724;2023-12-22T03:33:04;98298.06;;;6.24;92.52
11223;BME280;5668;52.012;8.724;2023-12-22T03:35:32;98285.03;;;6.25;92.04
11223;BME280;5668;52.012;8.724;2023-12-22T03:37:59;98288.31;;;6.27;90.88
11223;BME280;5668;52.012;8.724;2023-12-22T03:40:26;98284.78;;;6.28;91.00
11223;BME280;5668;52.012;8.724;2023-12-22T03:42:54;98280.31;;;6.30;89.84
11223;BME280;5668;52.012;8.724;2023-12-22T03:45:22;98293.34;;;6.29;90.07
11223;BME280;5668;52.012;8.724;2023-12-22T03:47:50;98292.28;;;6.31;89.15
11223;BME280;5668;52.012;8.724;2023-12-22T03:50:18;98271.34;;;6.34;89.73
11223;BME280;5668;52.012;8.724;2023-12-22T03:52:46;98275.56;;;6.35;88.10
11223;BME280;5668;52.012;8.724;2023-12-22T03:55:13;98273.69;;;6.37;88.37
11223;BME280;5668;52.012;8.724;2023-12-22T03:57:40;98264.72;;;6.41;87.90
11223;BME280;5668;52.012;8.724;2023-12-22T04:05:11;98278.06;;;6.46;88.15
11223;BME280;5668;52.012;8.724;2023-12-22T04:07:38;98286.47;;;6.48;87.12
11223;BME280;5668;52.012;8.724;2023-12-22T04:10:07;98277.53;;;6.52;88.15
11223;BME280;5668;52.012;8.724;2023-12-22T04:12:34;98285.16;;;6.54;87.71
11223;BME280;5668;52.012;8.724;2023-12-22T04:15:03;98277.53;;;6.52;89.00
11223;BME280;5668;52.012;8.724;2023-12-22T04:17:30;98291.66;;;6.58;90.17
11223;BME280;5668;52.012;8.724;2023-12-22T04:19:57;98293.56;;;6.56;90.93
11223;BME280;5668;52.012;8.724;2023-12-22T04:22:26;98300.47;;;6.55;91.12
11223;BME280;5668;52.012;8.724;2023-12-22T04:24:53;98295.88;;;6.59;90.87
11223;BME280;5668;52.012;8.724;2023-12-22T04:27:20;98301.75;;;6.61;91.98
11223;BME280;5668;52.012;8.724;2023-12-22T04:29:47;98324.00;;;6.62;92.37
11223;BME280;5668;52.012;8.724;2023-12-22T04:32:14;98312.06;;;6.61;92.45
11223;BME280;5668;52.012;8.724;2023-12-22T04:34:42;98309.06;;;6.66;93.31
11223;BME280;5668;52.012;8.724;2023-12-22T04:37:09;98298.63;;;6.67;94.07
11223;BME280;5668;52.012;8.724;2023-12-22T04:39:38;98293.59;;;6.66;93.59
11223;BME280;5668;52.012;8.724;2023-12-22T04:42:05;98296.97;;;6.66;93.27
11223;BME280;5668;52.012;8.724;2023-12-22T04:44:32;98288.69;;;6.63;93.49
11223;BME280;5668;52.012;8.724;2023-12-22T04:47:00;98294.25;;;6.58;93.37
11223;BME280;5668;52.012;8.724;2023-12-22T04:49:27;98307.97;;;6.58;92.82
11223;BME280;5668;52.012;8.724;2023-12-22T04:51:54;98294.94;;;6.60;93.87
11223;BME280;5668;52.012;8.724;2023-12-22T04:54:21;98300.91;;;6.60;93.65
11223;BME280;5668;52.012;8.724;2023-12-22T04:56:50;98309.59;;;6.59;93.57
11223;BME280;5668;52.012;8.724;2023-12-22T04:59:17;98314.88;;;6.58;92.89
11223;BME280;5668;52.012;8.724;2023-12-22T05:01:44;98313.94;;;6.59;93.44
11223;BME280;5668;52.012;8.724;2023-12-22T05:04:12;98308.78;;;6.59;93.73
11223;BME280;5668;52.012;8.724;2023-12-22T05:06:38;98305.09;;;6.61;93.06
11223;BME280;5668;52.012;8.724;2023-12-22T05:09:05;98300.63;;;6.64;93.35
11223;BME280;5668;52.012;8.724;2023-12-22T05:11:33;98294.78;;;6.61;94.15
11223;BME280;5668;52.012;8.724;2023-12-22T05:14:01;98310.00;;;6.65;93.46
11223;BME280;5668;52.012;8.724;2023-12-22T05:16:28;98303.50;;;6.60;93.27
11223;BME280;5668;52.012;8.724;2023-12-22T05:18:57;98301.75;;;6.61;93.85
11223;BME280;5668;52.012;8.724;2023-12-22T05:21:24;98310.25;;;6.61;93.89
11223;BME280;5668;52.012;8.724;2023-12-22T05:23:53;98310.00;;;6.65;93.53
11223;BME280;5668;52.012;8.724;2023-12-22T05:26:21;98296.28;;;6.64;92.80
11223;BME280;5668;52.012;8.724;2023-12-22T05:28:49;98306.50;;;6.66;93.68
11223;BME280;5668;52.012;8.724;2023-12-22T05:31:17;98290.31;;;6.64;93.77
11223;BME280;5668;52.012;8.724;2023-12-22T05:33:45;98309.59;;;6.59;93.11
11223;BME280;5668;52.012;8.724;2023-12-22T05:36:12;98307.97;;;6.58;92.62
11223;BME280;5668;52.012;8.724;2023-12-22T05:38:40;98314.75;;;6.59;93.16
11223;BME280;5668;52.012;8.724;2023-12-22T05:41:07;98316.41;;;6.60;93.16
11223;BME280;5668;52.012;8.724;2023-12-22T05:43:34;98335.66;;;6.56;93.56
11223;BME280;5668;52.012;8.724;2023-12-22T05:46:01;98356.31;;;6.56;94.11
11223;BME280;5668;52.012;8.724;2023-12-22T05:48:30;98343.91;;;6.50;94.10
11223;BME280;5668;52.012;8.724;2023-12-22T05:50:57;98328.44;;;6.50;94.54
11223;BME280;5668;52.012;8.724;2023-12-22T05:53:24;98314.97;;;6.47;94.96
11223;BME280;5668;52.012;8.724;2023-12-22T05:55:52;98333.03;;;6.47;94.97
11223;BME280;5668;52.012;8.724;2023-12-22T05:58:19;98320.28;;;6.45;95.33
11223;BME280;5668;52.012;8.724;2023-12-22T06:00:46;98346.22;;;6.44;95.21
11223;BME280;5668;52.012;8.724;2023-12-22T06:03:13;98341.06;;;6.44;95.21
11223;BME280;5668;52.012;8.724;2023-12-22T06:05:42;98338.59;;;6.42;94.56
11223;BME280;5668;52.012;8.724;2023-12-22T06:08:09;98326.63;;;6.41;94.96
11223;BME280;5668;52.012;8.724;2023-12-22T06:10:36;98328.53;;;6.39;94.33
11223;BME280;5668;52.012;8.724;2023-12-22T06:13:04;98340.34;;;6.42;95.22
11223;BME280;5668;52.012;8.724;2023-12-22T06:15:32;98343.75;;;6.42;94.24
11223;BME280;5668;52.012;8.724;2023-12-22T06:17:59;98343.34;;;6.37;95.25
11223;BME280;5668;52.012;8.724;2023-12-22T06:20:26;98354.59;;;6.36;95.10
11223;BME280;5668;52.012;8.724;2023-12-22T06:22:55;98363.03;;;6.38;94.93
11223;BME280;5668;52.012;8.724;2023-12-22T06:25:22;98362.75;;;6.41;95.35
11223;BME280;5668;52.012;8.724;2023-12-22T06:27:49;98372.13;;;6.42;95.70
11223;BME280;5668;52.012;8.724;2023-12-22T06:30:16;98371.19;;;6.43;94.72
11223;BME280;5668;52.012;8.724;2023-12-22T06:32:44;98385.44;;;6.47;95.74
11223;BME280;5668;52.012;8.724;2023-12-22T06:35:11;98401.63;;;6.49;95.55
11223;BME280;5668;52.012;8.724;2023-12-22T06:37:38;98382.63;;;6.50;94.97
11223;BME280;5668;52.012;8.724;2023-12-22T06:40:09;98387.78;;;6.50;95.82
11223;BME280;5668;52.012;8.724;2023-12-22T06:42:37;98386.16;;;6.49;95.34
11223;BME280;5668;52.012;8.724;2023-12-22T06:45:05;98401.09;;;6.55;94.82
11223;BME280;5668;52.012;8.724;2023-12-22T06:47:32;98416.59;;;6.55;94.23
11223;BME280;5668;52.012;8.724;2023-12-22T06:49:59;98404.38;;;6.57;93.80
11223;BME280;5668;52.012;8.724;2023-12-22T06:52:26;98407.66;;;6.59;94.09
11223;BME280;5668;52.012;8.724;2023-12-22T06:54:54;98410.91;;;6.61;93.98
11223;BME280;5668;52.012;8.724;2023-12-22T06:57:22;98407.13;;;6.66;93.55
11223;BME280;5668;52.012;8.724;2023-12-22T06:59:49;98422.50;;;6.67;93.72
11223;BME280;5668;52.012;8.724;2023-12-22T07:02:17;98428.31;;;6.69;94.14
11223;BME280;5668;52.012;8.724;2023-12-22T07:05:03;98434.19;;;6.71;93.55
11223;BME280;5668;52.012;8.724;2023-12-22T07:07:32;98424.81;;;6.70;93.57
11223;BME280;5668;52.012;8.724;2023-12-22T07:09:59;98428.47;;;6.68;93.39
11223;BME280;5668;52.012;8.724;2023-12-22T07:12:27;98441.09;;;6.71;93.59
11223;BME280;5668;52.012;8.724;2023-12-22T07:14:55;98445.44;;;6.70;93.01
11223;BME280;5668;52.012;8.724;2023-12-22T07:17:22;98444.13;;;6.76;92.89
11223;BME280;5668;52.012;8.724;2023-12-22T07:19:49;98442.38;;;6.76;93.31
11223;BME280;5668;52.012;8.724;2023-12-22T07:22:18;98458.41;;;6.80;92.67
11223;BME280;5668;52.012;8.724;2023-12-22T07:24:45;98465.91;;;6.83;92.61
11223;BME280;5668;52.012;8.724;2023-12-22T07:27:13;98460.06;;;6.81;92.54
11223;BME280;5668;52.012;8.724;2023-12-22T07:29:41;98458.16;;;6.83;92.23
11223;BME280;5668;52.012;8.724;2023-12-22T07:32:09;98459.81;;;6.84;93.23
11223;BME280;5668;52.012;8.724;2023-12-22T07:34:36;98460.47;;;6.86;92.27
11223;BME280;5668;52.012;8.724;2023-12-22T07:37:03;98462.81;;;6.89;92.40
11223;BME280;5668;52.012;8.724;2023-12-22T07:39:30;98467.69;;;6.92;92.36
11223;BME280;5668;52.012;8.724;2023-12-22T07:41:58;98472.06;;;6.91;92.29
11223;BME280;5668;52.012;8.724;2023-12-22T07:44:25;98467.03;;;6.90;92.92
11223;BME280;5668;52.012;8.724;2023-12-22T07:46:59;98478.03;;;6.92;92.73
11223;BME280;5668;52.012;8.724;2023-12-22T07:49:27;98486.47;;;6.94;92.16
11223;BME280;5668;52.012;8.724;2023-12-22T07:51:54;98482.13;;;6.94;91.67
11223;BME280;5668;52.012;8.724;2023-12-22T07:54:22;98501.72;;;6.97;91.96
11223;BME280;5668;52.012;8.724;2023-12-22T07:56:49;98495.59;;;6.98;92.00
11223;BME280;5668;52.012;8.724;2023-12-22T07:59:16;98491.09;;;7.00;91.77
11223;BME280;5668;52.012;8.724;2023-12-22T08:01:43;98495.31;;;7.01;91.81
11223;BME280;5668;52.012;8.724;2023-12-22T08:04:12;98493.44;;;7.03;91.17
11223;BME280;5668;52.012;8.724;2023-12-22T08:06:40;98482.03;;;7.06;91.17
11223;BME280;5668;52.012;8.724;2023-12-22T08:09:07;98500.78;;;7.08;91.71
11223;BME280;5668;52.012;8.724;2023-12-22T08:11:34;98493.59;;;7.11;91.62
11223;BME280;5668;52.012;8.724;2023-12-22T08:14:01;98502.06;;;7.13;91.76
11223;BME280;5668;52.012;8.724;2023-12-22T08:16:29;98502.41;;;7.09;92.17
11223;BME280;5668;52.012;8.724;2023-12-22T08:18:58;98503.25;;;7.09;92.18
11223;BME280;5668;52.012;8.724;2023-12-22T08:21:27;98514.97;;;7.13;92.24
11223;BME280;5668;52.012;8.724;2023-12-22T08:23:54;98514.16;;;7.13;92.26
11223;BME280;5668;52.012;8.724;2023-12-22T08:26:21;98513.31;;;7.12;91.59
11223;BME280;5668;52.012;8.724;2023-12-22T08:28:48;98514.16;;;7.13;92.70
11223;BME280;5668;52.012;8.724;2023-12-22T08:31:15;98505.44;;;7.14;92.00
11223;BME280;5668;52.012;8.724;2023-12-22T08:33:43;98511.41;;;7.14;91.75
11223;BME280;5668;52.012;8.724;2023-12-22T08:36:11;98516.56;;;7.14;92.57
11223;BME280;5668;52.012;8.724;2023-12-22T08:38:40;98521.75;;;7.14;92.45
11223;BME280;5668;52.012;8.724;2023-12-22T08:41:07;98531.81;;;7.17;92.99
11223;BME280;5668;52.012;8.724;2023-12-22T08:43:36;98525.59;;;7.20;93.24
11223;BME280;5668;52.012;8.724;2023-12-22T08:46:04;98525.59;;;7.20;93.31
11223;BME280;5668;52.012;8.724;2023-12-22T08:48:31;98528.06;;;7.21;93.46
11223;BME280;5668;52.012;8.724;2023-12-22T08:50:58;98531.31;;;7.23;94.43
11223;BME280;5668;52.012;8.724;2023-12-22T08:53:26;98522.59;;;7.24;94.47
11223;BME280;5668;52.012;8.724;2023-12-22T08:55:57;98531.19;;;7.25;93.80
11223;BME280;5668;52.012;8.724;2023-12-22T08:58:24;98539.50;;;7.28;94.08
11223;BME280;5668;52.012;8.724;2023-12-22T09:00:51;98526.59;;;7.28;95.04
11223;BME280;5668;52.012;8.724;2023-12-22T09:03:19;98532.56;;;7.29;94.48
11223;BME280;5668;52.012;8.724;2023-12-22T09:05:46;98528.34;;;7.28;94.95
11223;BME280;5668;52.012;8.724;2023-12-22T09:08:14;98534.34;;;7.28;94.05
11223;BME280;5668;52.012;8.724;2023-12-22T09:10:41;98537.59;;;7.30;93.36
11223;BME280;5668;52.012;8.724;2023-12-22T09:13:10;98533.81;;;7.34;93.98
11223;BME280;5668;52.012;8.724;2023-12-22T09:15:37;98532.16;;;7.33;93.84
11223;BME280;5668;52.012;8.724;2023-12-22T09:18:05;98519.00;;;7.36;93.74
11223;BME280;5668;52.012;8.724;2023-12-22T09:20:32;98518.84;;;7.38;93.49
11223;BME280;5668;52.012;8.724;2023-12-22T09:23:00;98513.69;;;7.38;93.03
11223;BME280;5668;52.012;8.724;2023-12-22T09:25:31;98511.91;;;7.38;94.54
11223;BME280;5668;52.012;8.724;2023-12-22T09:27:58;98528.22;;;7.39;93.77
11223;BME280;5668;52.012;8.724;2023-12-22T09:30:27;98522.13;;;7.40;93.58
11223;BME280;5668;52.012;8.724;2023-12-22T09:32:54;98527.03;;;7.43;93.92
11223;BME280;5668;52.012;8.724;2023-12-22T09:35:21;98528.69;;;7.44;94.85
11223;BME280;5668;52.012;8.724;2023-12-22T09:37:50;98543.38;;;7.44;94.74
11223;BME280;5668;52.012;8.724;2023-12-22T09:40:20;98537.50;;;7.42;95.68
11223;BME280;5668;52.012;8.724;2023-12-22T09:42:48;98533.69;;;7.46;95.12
11223;BME280;5668;52.012;8.724;2023-12-22T09:45:17;98526.88;;;7.45;95.79
11223;BME280;5668;52.012;8.724;2023-12-22T09:47:48;98531.09;;;7.46;95.52
11223;BME280;5668;52.012;8.724;2023-12-22T09:50:16;98532.75;;;7.47;96.28
11223;BME280;5668;52.012;8.724;2023-12-22T09:52:44;98527.56;;;7.47;96.78
11223;BME280;5668;52.012;8.724;2023-12-22T09:55:13;98539.56;;;7.48;97.12
11223;BME280;5668;52.012;8.724;2023-12-22T09:57:40;98530.28;;;7.45;97.47
11223;BME280;5668;52.012;8.724;2023-12-22T10:00:09;98509.59;;;7.45;97.50
11223;BME280;5668;52.012;8.724;2023-12-22T10:02:39;98510.72;;;7.43;97.84
11223;BME280;5668;52.012;8.724;2023-12-22T10:05:09;98513.97;;;7.45;98.02
11223;BME280;5668;52.012;8.724;2023-12-22T10:07:39;98508.13;;;7.43;98.53
11223;BME280;5668;52.012;8.724;2023-12-22T10:10:08;98504.44;;;7.45;98.82
11223;BME280;5668;52.012;8.724;2023-12-22T10:12:38;98490.56;;;7.46;98.98
11223;BME280;5668;52.012;8.724;2023-12-22T10:15:08;98471.94;;;7.43;98.96
11223;BME280;5668;52.012;8.724;2023-12-22T10:17:36;98476.19;;;7.44;99.58
11223;BME280;5668;52.012;8.724;2023-12-22T10:20:05;98467.19;;;7.48;98.86
11223;BME280;5668;52.012;8.724;2023-12-22T10:22:35;98460.13;;;7.50;98.58
11223;BME280;5668;52.012;8.724;2023-12-22T10:25:03;98463.66;;;7.49;98.69
11223;BME280;5668;52.012;8.724;2023-12-22T10:27:32;98451.00;;;7.46;98.54
11223;BME280;5668;52.012;8.724;2023-12-22T10:30:00;98454.16;;;7.49;99.63
11223;BME280;5668;52.012;8.724;2023-12-22T10:32:27;98454.84;;;7.51;99.04
11223;BME280;5668;52.012;8.724;2023-12-22T10:34:55;98451.69;;;7.48;99.23
11223;BME280;5668;52.012;8.724;2023-12-22T10:37:23;98443.81;;;7.49;99.24
11223;BME280;5668;52.012;8.724;2023-12-22T10:39:54;98441.09;;;7.51;99.66
11223;BME280;5668;52.012;8.724;2023-12-22T10:42:22;98443.69;;;7.51;100.00
11223;BME280;5668;52.012;8.724;2023-12-22T10:44:49;98447.75;;;7.53;99.71
11223;BME280;5668;52.012;8.724;2023-12-22T10:47:17;98445.97;;;7.54;100.00
11223;BME280;5668;52.012;8.724;2023-12-22T10:49:47;98447.63;;;7.55;100.00
11223;BME280;5668;52.012;8.724;2023-12-22T10:52:16;98433.75;;;7.56;100.00
11223;BME280;5668;52.012;8.724;2023-12-22T10:54:44;98447.34;;;7.58;100.00
11223;BME280;5668;52.012;8.724;2023-12-22T10:57:14;98445.59;;;7.58;100.00
11223;BME280;5668;52.012;8.724;2023-12-22T10:59:45;98436.84;;;7.59;99.87
11223;BME280;5668;52.012;8.724;2023-12-22T11:02:16;98439.44;;;7.59;100.00
11223;BME280;5668;52.012;8.724;2023-12-22T11:04:51;98436.19;;;7.57;99.97
11223;BME280;5668;52.012;8.724;2023-12-22T11:07:24;98450.75;;;7.58;100.00
11223;BME280;5668;52.012;8.724;2023-12-22T11:09:53;98443.81;;;7.59;99.38
11223;BME280;5668;52.012;8.724;2023-12-22T11:12:24;98435.91;;;7.60;100.00
11223;BME280;5668;52.012;8.724;2023-12-22T11:14:53;98440.00;;;7.63;100.00
11223;BME280;5668;52.012;8.724;2023-12-22T11:17:22;98428.03;;;7.62;99.86
11223;BME280;5668;52.012;8.724;2023-12-22T11:19:50;98427.78;;;7.65;100.00
11223;BME280;5668;52.012;8.724;2023-12-22T11:22:19;98426.13;;;7.64;99.96
11223;BME280;5668;52.012;8.724;2023-12-22T11:24:49;98424.25;;;7.66;100.00
11223;BME280;5668;52.012;8.724;2023-12-22T11:27:17;98432.13;;;7.64;100.00
11223;BME280;5668;52.012;8.724;2023-12-22T11:29:48;98414.72;;;7.66;100.00
11223;BME280;5668;52.012;8.724;2023-12-22T11:32:17;98403.56;;;7.66;99.72
11223;BME280;5668;52.012;8.724;2023-12-22T11:34:45;98406.16;;;7.66;99.81
11223;BME280;5668;52.012;8.724;2023-12-22T11:37:13;98415.50;;;7.67;100.00
11223;BME280;5668;52.012;8.724;2023-12-22T11:39:41;98406.81;;;7.68;100.00
11223;BME280;5668;52.012;8.724;2023-12-22T11:42:10;98415.50;;;7.67;100.00
11223;BME280;5668;52.012;8.724;2023-12-22T11:44:38;98410.34;;;7.67;100.00
11223;BME280;5668;52.012;8.724;2023-12-22T11:47:09;98408.56;;;7.67;100.00
11223;BME280;5668;52.012;8.724;2023-12-22T11:49:38;98406.81;;;7.68;100.00
11223;BME280;5668;52.012;8.724;2023-12-22T11:52:12;98416.88;;;7.71;100.00
11223;BME280;5668;52.012;8.724;2023-12-22T11:54:47;98417.56;;;7.73;100.00
11223;BME280;5668;52.012;8.724;2023-12-22T12:00:09;98406.41;;;7.72;100.00
11223;BME280;5668;52.012;8.724;2023-12-22T12:02:40;98401.13;;;7.74;100.00
11223;BME280;5668;52.012;8.724;2023-12-22T12:05:08;98388.19;;;7.74;100.00
11223;BME280;5668;52.012;8.724;2023-12-22T12:07:40;98394.97;;;7.75;100.00
11223;BME280;5668;52.012;8.724;2023-12-22T12:10:11;98388.97;;;7.74;100.00
11223;BME280;5668;52.012;8.724;2023-12-22T12:12:40;98404.34;;;7.76;100.00
11223;BME280;5668;52.012;8.724;2023-12-22T12:15:16;98408.72;;;7.75;100.00
11223;BME280;5668;52.012;8.724;2023-12-22T12:17:45;98397.56;;;7.75;100.00
11223;BME280;5668;52.012;8.724;2023-12-22T12:20:17;98385.44;;;7.75;100.00
11223;BME280;5668;52.012;8.724;2023-12-22T12:22:46;98376.88;;;7.75;100.00
11223;BME280;5668;52.012;8.724;2023-12-22T12:25:14;98375.66;;;7.79;100.00
11223;BME280;5668;52.012;8.724;2023-12-22T12:27:41;98376.59;;;7.78;100.00
11223;BME280;5668;52.012;8.724;2023-12-22T12:30:13;98373.06;;;7.79;100.00
11223;BME280;5668;52.012;8.724;2023-12-22T12:32:45;98373.19;;;7.77;100.00
11223;BME280;5668;52.012;8.724;2023-12-22T12:35:15;98375.78;;;7.77;100.00
11223;BME280;5668;52.012;8.724;2023-12-22T12:37:45;98363.69;;;7.78;100.00
11223;BME280;5668;52.012;8.724;2023-12-22T12:40:12;98380.81;;;7.79;100.00
11223;BME280;5668;52.012;8.724;2023-12-22T12:42:43;98385.06;;;7.80;100.00
11223;BME280;5668;52.012;8.724;2023-12-22T12:45:10;98370.88;;;7.84;100.00
11223;BME280;5668;52.012;8.724;2023-12-22T12:47:37;98376.34;;;7.81;100.00
11223;BME280;5668;52.012;8.724;2023-12-22T12:50:07;98377.94;;;7.82;100.00
11223;BME280;5668;52.012;8.724;2023-12-22T12:52:34;98368.59;;;7.81;100.00
11223;BME280;5668;52.012;8.724;2023-12-22T12:55:02;98366.00;;;7.81;100.00
11223;BME280;5668;52.012;8.724;2023-12-22T12:57:29;98368.59;;;7.81;100.00
11223;BME280;5668;52.012;8.724;2023-12-22T12:59:57;98370.88;;;7.84;100.00
11223;BME280;5668;52.012;8.724;2023-12-22T13:02:24;98383.13;;;7.82;99.99
11223;BME280;5668;52.012;8.724;2023-12-22T13:04:52;98372.00;;;7.82;99.32
11223;BME280;5668;52.012;8.724;2023-12-22T13:07:27;98370.06;;;7.84;99.19
11223;BME280;5668;52.012;8.724;2023-12-22T13:09:54;98376.75;;;7.86;99.39
11223;BME280;5668;52.012;8.724;2023-12-22T13:12:23;98375.78;;;7.87;98.85
11223;BME280;5668;52.012;8.724;2023-12-22T13:14:51;98371.69;;;7.85;99.05
11223;BME280;5668;52.012;8.724;2023-12-22T13:17:19;98353.72;;;7.83;99.71
11223;BME280;5668;52.012;8.724;2023-12-22T13:19:47;98352.66;;;7.86;98.72
11223;BME280;5668;52.012;8.724;2023-12-22T13:22:14;98362.16;;;7.85;99.38
11223;BME280;5668;52.012;8.724;2023-12-22T13:24:55;98376.06;;;7.84;99.71
11223;BME280;5668;52.012;8.724;2023-12-22T13:27:22;98378.38;;;7.87;98.78
11223;BME280;5668;52.012;8.724;2023-12-22T13:29:50;98396.47;;;7.87;99.01
11223;BME280;5668;52.012;8.724;2023-12-22T13:32:19;98380.97;;;7.87;99.26